sensor_id;sensor_type;location;lat;lon;timestamp;temperature;humidity
7163;DHT22;3623;47.098;15.446;2022-11-20T00:01:30;1.40;99.90
7163;DHT22;3623;47.098;15.446;2022-11-20T00:03:58;1.30;99.90
7163;DHT22;3623;47.098;15.446;2022-11-20T00:06:27;1.20;99.90
7163;DHT22;3623;47.098;15.446;2022-11-20T00:08:56;1.20;99.90
7163;DHT22;3623;47.098;15.446;2022-11-20T00:11:25;1.30;99.90
7163;DHT22;3623;47.098;15.446;2022-11-20T00:13:53;1.30;99.90
7163;DHT22;3623;47.098;15.446;2022-11-20T00:16:24;1.30;99.90
7163;DHT22;3623;47.098;15.446;2022-11-20T00:18:51;1.50;99.90
7163;DHT22;3623;47.098;15.446;2022-11-20T00:21:20;1.40;99.90
7163;DHT22;3623;47.098;15.446;2022-11-20T00:23:50;1.40;99.90
7163;DHT22;3623;47.098;15.446;2022-11-20T00:26:18;1.40;99.90
7163;DHT22;3623;47.098;15.446;2022-11-20T00:28:49;1.40;99.90
7163;DHT22;3623;47.098;15.446;2022-11-20T00:31:17;1.40;99.90
7163;DHT22;3623;47.098;15.446;2022-11-20T00:33:45;1.40;99.90
7163;DHT22;3623;47.098;15.446;2022-11-20T00:36:14;1.30;99.90
7163;DHT22;3623;47.098;15.446;2022-11-20T00:38:42;1.30;99.90
7163;DHT22;3623;47.098;15.446;2022-11-20T00:41:12;1.30;99.90
7163;DHT22;3623;47.098;15.446;2022-11-20T00:43:40;1.50;99.90
7163;DHT22;3623;47.098;15.446;2022-11-20T00:46:09;1.60;99.90
7163;DHT22;3623;47.098;15.446;2022-11-20T00:48:36;1.70;99.90
7163;DHT22;3623;47.098;15.446;2022-11-20T00:51:03;1.60;99.90
7163;DHT22;3623;47.098;15.446;2022-11-20T00:53:31;1.60;99.90
7163;DHT22;3623;47.098;15.446;2022-11-20T00:56:00;1.40;99.90
7163;DHT22;3623;47.098;15.446;2022-11-20T00:58:31;1.40;99.90
7163;DHT22;3623;47.098;15.446;2022-11-20T01:01:03;1.30;99.90
7163;DHT22;3623;47.098;15.446;2022-11-20T01:03:31;1.40;99.90
7163;DHT22;3623;47.098;15.446;2022-11-20T01:06:02;1.50;99.90
7163;DHT22;3623;47.098;15.446;2022-11-20T01:08:31;1.50;99.90
7163;DHT22;3623;47.098;15.446;2022-11-20T01:11:02;1.50;99.90
7163;DHT22;3623;47.098;15.446;2022-11-20T01:13:31;1.60;99.90
7163;DHT22;3623;47.098;15.446;2022-11-20T01:16:06;1.60;99.90
7163;DHT22;3623;47.098;15.446;2022-11-20T01:18:34;1.60;99.90
7163;DHT22;3623;47.098;15.446;2022-11-20T01:21:02;1.80;99.90
7163;DHT22;3623;47.098;15.446;2022-11-20T01:23:32;1.80;99.90
7163;DHT22;3623;47.098;15.446;2022-11-20T01:26:02;1.60;99.90
7163;DHT22;3623;47.098;15.446;2022-11-20T01:28:31;1.40;99.90
7163;DHT22;3623;47.098;15.446;2022-11-20T01:30:58;1.80;99.90
7163;DHT22;3623;47.098;15.446;2022-11-20T01:33:25;1.50;99.90
7163;DHT22;3623;47.098;15.446;2022-11-20T01:35:53;1.50;99.90
7163;DHT22;3623;47.098;15.446;2022-11-20T01:38:20;1.60;99.90
7163;DHT22;3623;47.098;15.446;2022-11-20T01:40:54;1.60;99.90
7163;DHT22;3623;47.098;15.446;2022-11-20T01:43:22;1.60;99.90
7163;DHT22;3623;47.098;15.446;2022-11-20T01:46:00;1.80;99.90
7163;DHT22;3623;47.098;15.446;2022-11-20T01:48:32;1.70;99.90
7163;DHT22;3623;47.098;15.446;2022-11-20T01:51:00;1.90;99.90
7163;DHT22;3623;47.098;15.446;2022-11-20T01:53:32;1.70;99.90
7163;DHT22;3623;47.098;15.446;2022-11-20T01:56:01;1.80;99.90
7163;DHT22;3623;47.098;15.446;2022-11-20T01:58:33;1.70;99.90
7163;DHT22;3623;47.098;15.446;2022-11-20T02:01:04;1.60;99.90
7163;DHT22;3623;47.098;15.446;2022-11-20T02:03:31;1.60;99.90
7163;DHT22;3623;47.098;15.446;2022-11-20T02:06:05;1.60;99.90
7163;DHT22;3623;47.098;15.446;2022-11-20T02:08:35;1.60;99.90
7163;DHT22;3623;47.098;15.446;2022-11-20T02:11:03;1.70;99.90
7163;DHT22;3623;47.098;15.446;2022-11-20T02:13:30;1.70;99.90
7163;DHT22;3623;47.098;15.446;2022-11-20T02:16:20;1.90;99.90
7163;DHT22;3623;47.098;15.446;2022-11-20T02:18:48;1.70;99.90
7163;DHT22;3623;47.098;15.446;2022-11-20T02:21:28;1.70;99.90
7163;DHT22;3623;47.098;15.446;2022-11-20T02:24:03;1.70;99.90
7163;DHT22;3623;47.098;15.446;2022-11-20T02:26:33;1.70;99.90
7163;DHT22;3623;47.098;15.446;2022-11-20T02:29:02;1.80;99.90
7163;DHT22;3623;47.098;15.446;2022-11-20T02:31:35;2.00;99.90
7163;DHT22;3623;47.098;15.446;2022-11-20T02:34:02;1.70;99.90
7163;DHT22;3623;47.098;15.446;2022-11-20T02:36:30;1.90;99.90
7163;DHT22;3623;47.098;15.446;2022-11-20T02:38:58;1.80;99.90
7163;DHT22;3623;47.098;15.446;2022-11-20T02:41:33;2.00;99.90
7163;DHT22;3623;47.098;15.446;2022-11-20T02:44:00;1.80;99.90
7163;DHT22;3623;47.098;15.446;2022-11-20T02:46:28;1.70;99.90
7163;DHT22;3623;47.098;15.446;2022-11-20T02:48:55;1.70;99.90
7163;DHT22;3623;47.098;15.446;2022-11-20T02:51:23;1.90;99.90
7163;DHT22;3623;47.098;15.446;2022-11-20T02:53:50;2.00;99.90
7163;DHT22;3623;47.098;15.446;2022-11-20T02:56:17;1.90;99.90
7163;DHT22;3623;47.098;15.446;2022-11-20T02:58:45;1.80;99.90
7163;DHT22;3623;47.098;15.446;2022-11-20T03:01:12;2.00;99.90
7163;DHT22;3623;47.098;15.446;2022-11-20T03:03:40;1.80;99.90
7163;DHT22;3623;47.098;15.446;2022-11-20T03:06:07;1.70;99.90
7163;DHT22;3623;47.098;15.446;2022-11-20T03:08:34;1.90;99.90
7163;DHT22;3623;47.098;15.446;2022-11-20T03:11:05;1.80;99.90
7163;DHT22;3623;47.098;15.446;2022-11-20T03:13:34;1.90;99.90
7163;DHT22;3623;47.098;15.446;2022-11-20T03:16:10;1.90;99.90
7163;DHT22;3623;47.098;15.446;2022-11-20T03:18:38;1.80;99.90
7163;DHT22;3623;47.098;15.446;2022-11-20T03:21:06;2.00;99.90
7163;DHT22;3623;47.098;15.446;2022-11-20T03:23:34;1.80;99.90
7163;DHT22;3623;47.098;15.446;2022-11-20T03:26:09;1.80;99.90
7163;DHT22;3623;47.098;15.446;2022-11-20T03:28:36;2.10;99.90
7163;DHT22;3623;47.098;15.446;2022-11-20T03:31:12;1.80;99.90
7163;DHT22;3623;47.098;15.446;2022-11-20T03:33:40;2.10;99.90
7163;DHT22;3623;47.098;15.446;2022-11-20T03:36:10;1.80;99.90
7163;DHT22;3623;47.098;15.446;2022-11-20T03:38:37;1.90;99.90
7163;DHT22;3623;47.098;15.446;2022-11-20T03:41:07;1.90;99.90
7163;DHT22;3623;47.098;15.446;2022-11-20T03:43:34;2.00;99.90
7163;DHT22;3623;47.098;15.446;2022-11-20T03:46:02;1.90;99.90
7163;DHT22;3623;47.098;15.446;2022-11-20T03:48:30;1.90;99.90
7163;DHT22;3623;47.098;15.446;2022-11-20T03:51:07;1.90;99.90
7163;DHT22;3623;47.098;15.446;2022-11-20T03:53:35;1.90;99.90
7163;DHT22;3623;47.098;15.446;2022-11-20T03:56:02;1.90;99.90
7163;DHT22;3623;47.098;15.446;2022-11-20T03:58:29;1.90;99.90
7163;DHT22;3623;47.098;15.446;2022-11-20T04:00:57;2.00;99.90
7163;DHT22;3623;47.098;15.446;2022-11-20T04:03:24;2.10;99.90
7163;DHT22;3623;47.098;15.446;2022-11-20T04:05:53;1.90;99.90
7163;DHT22;3623;47.098;15.446;2022-11-20T04:08:20;2.00;99.90
7163;DHT22;3623;47.098;15.446;2022-11-20T04:10:47;2.00;99.90
7163;DHT22;3623;47.098;15.446;2022-11-20T04:13:14;2.00;99.90
7163;DHT22;3623;47.098;15.446;2022-11-20T04:15:41;2.00;99.90
7163;DHT22;3623;47.098;15.446;2022-11-20T04:18:08;2.20;99.90
7163;DHT22;3623;47.098;15.446;2022-11-20T04:20:35;2.00;99.90
7163;DHT22;3623;47.098;15.446;2022-11-20T04:23:04;2.30;99.90
7163;DHT22;3623;47.098;15.446;2022-11-20T04:25:31;1.90;99.90
7163;DHT22;3623;47.098;15.446;2022-11-20T04:27:58;1.90;99.90
7163;DHT22;3623;47.098;15.446;2022-11-20T04:30:25;1.90;99.90
7163;DHT22;3623;47.098;15.446;2022-11-20T04:32:52;1.90;99.90
7163;DHT22;3623;47.098;15.446;2022-11-20T04:35:19;1.90;99.90
7163;DHT22;3623;47.098;15.446;2022-11-20T04:37:46;1.90;99.90
7163;DHT22;3623;47.098;15.446;2022-11-20T04:40:15;1.90;99.90
7163;DHT22;3623;47.098;15.446;2022-11-20T04:42:42;1.90;99.90
7163;DHT22;3623;47.098;15.446;2022-11-20T04:45:09;2.00;99.90
7163;DHT22;3623;47.098;15.446;2022-11-20T04:47:36;1.90;99.90
7163;DHT22;3623;47.098;15.446;2022-11-20T04:50:04;1.90;99.90
7163;DHT22;3623;47.098;15.446;2022-11-20T04:52:31;1.90;99.90
7163;DHT22;3623;47.098;15.446;2022-11-20T04:54:58;2.00;99.90
7163;DHT22;3623;47.098;15.446;2022-11-20T04:57:27;1.90;99.90
7163;DHT22;3623;47.098;15.446;2022-11-20T04:59:54;2.00;99.90
7163;DHT22;3623;47.098;15.446;2022-11-20T05:02:21;1.80;99.90
7163;DHT22;3623;47.098;15.446;2022-11-20T05:04:48;2.00;99.90
7163;DHT22;3623;47.098;15.446;2022-11-20T05:07:15;2.00;99.90
7163;DHT22;3623;47.098;15.446;2022-11-20T05:09:42;2.00;99.90
7163;DHT22;3623;47.098;15.446;2022-11-20T05:12:09;2.00;99.90
7163;DHT22;3623;47.098;15.446;2022-11-20T05:14:38;1.80;99.90
7163;DHT22;3623;47.098;15.446;2022-11-20T05:17:05;1.80;99.90
7163;DHT22;3623;47.098;15.446;2022-11-20T05:19:32;1.80;99.90
7163;DHT22;3623;47.098;15.446;2022-11-20T05:21:59;1.70;99.90
7163;DHT22;3623;47.098;15.446;2022-11-20T05:24:26;1.70;99.90
7163;DHT22;3623;47.098;15.446;2022-11-20T05:26:53;1.70;99.90
7163;DHT22;3623;47.098;15.446;2022-11-20T05:29:20;1.70;99.90
7163;DHT22;3623;47.098;15.446;2022-11-20T05:31:48;1.80;99.90
7163;DHT22;3623;47.098;15.446;2022-11-20T05:34:16;1.70;99.90
7163;DHT22;3623;47.098;15.446;2022-11-20T05:36:43;1.90;99.90
7163;DHT22;3623;47.098;15.446;2022-11-20T05:39:10;1.90;99.90
7163;DHT22;3623;47.098;15.446;2022-11-20T05:41:37;1.70;99.90
7163;DHT22;3623;47.098;15.446;2022-11-20T05:44:04;1.70;99.90
7163;DHT22;3623;47.098;15.446;2022-11-20T05:46:31;1.70;99.90
7163;DHT22;3623;47.098;15.446;2022-11-20T05:49:00;1.70;99.90
7163;DHT22;3623;47.098;15.446;2022-11-20T05:51:27;1.70;99.90
7163;DHT22;3623;47.098;15.446;2022-11-20T05:53:56;1.70;99.90
7163;DHT22;3623;47.098;15.446;2022-11-20T05:56:24;1.80;99.90
7163;DHT22;3623;47.098;15.446;2022-11-20T05:58:51;1.70;99.90
7163;DHT22;3623;47.098;15.446;2022-11-20T06:01:20;1.70;99.90
7163;DHT22;3623;47.098;15.446;2022-11-20T06:03:48;1.70;99.90
7163;DHT22;3623;47.098;15.446;2022-11-20T06:06:18;1.80;99.90
7163;DHT22;3623;47.098;15.446;2022-11-20T06:08:46;1.70;99.90
7163;DHT22;3623;47.098;15.446;2022-11-20T06:11:14;1.90;99.90
7163;DHT22;3623;47.098;15.446;2022-11-20T06:13:43;2.00;99.90
7163;DHT22;3623;47.098;15.446;2022-11-20T06:16:11;1.70;99.90
7163;DHT22;3623;47.098;15.446;2022-11-20T06:18:39;1.60;99.90
7163;DHT22;3623;47.098;15.446;2022-11-20T06:21:08;1.60;99.90
7163;DHT22;3623;47.098;15.446;2022-11-20T06:23:37;1.70;99.90
7163;DHT22;3623;47.098;15.446;2022-11-20T06:26:06;1.90;99.90
7163;DHT22;3623;47.098;15.446;2022-11-20T06:28:34;1.70;99.90
7163;DHT22;3623;47.098;15.446;2022-11-20T06:31:02;1.80;99.90
7163;DHT22;3623;47.098;15.446;2022-11-20T06:33:29;2.00;99.90
7163;DHT22;3623;47.098;15.446;2022-11-20T06:35:57;2.00;99.90
7163;DHT22;3623;47.098;15.446;2022-11-20T06:38:24;2.20;99.90
7163;DHT22;3623;47.098;15.446;2022-11-20T06:40:53;1.90;99.90
7163;DHT22;3623;47.098;15.446;2022-11-20T06:43:20;2.10;99.90
7163;DHT22;3623;47.098;15.446;2022-11-20T06:45:52;2.00;99.90
7163;DHT22;3623;47.098;15.446;2022-11-20T06:48:19;1.90;99.90
7163;DHT22;3623;47.098;15.446;2022-11-20T06:50:46;2.30;99.90
7163;DHT22;3623;47.098;15.446;2022-11-20T06:53:13;2.10;99.90
7163;DHT22;3623;47.098;15.446;2022-11-20T06:55:42;2.10;99.90
7163;DHT22;3623;47.098;15.446;2022-11-20T06:58:12;2.10;99.90
7163;DHT22;3623;47.098;15.446;2022-11-20T07:00:39;2.20;99.90
7163;DHT22;3623;47.098;15.446;2022-11-20T07:03:07;2.20;99.90
7163;DHT22;3623;47.098;15.446;2022-11-20T07:05:35;2.20;99.90
7163;DHT22;3623;47.098;15.446;2022-11-20T07:08:04;2.40;99.90
7163;DHT22;3623;47.098;15.446;2022-11-20T07:10:32;2.20;99.90
7163;DHT22;3623;47.098;15.446;2022-11-20T07:12:59;2.20;99.90
7163;DHT22;3623;47.098;15.446;2022-11-20T07:15:28;2.20;99.90
7163;DHT22;3623;47.098;15.446;2022-11-20T07:17:55;2.20;99.90
7163;DHT22;3623;47.098;15.446;2022-11-20T07:20:24;2.20;99.90
7163;DHT22;3623;47.098;15.446;2022-11-20T07:22:53;2.30;99.90
7163;DHT22;3623;47.098;15.446;2022-11-20T07:25:21;2.30;99.90
7163;DHT22;3623;47.098;15.446;2022-11-20T07:27:48;2.50;99.90
7163;DHT22;3623;47.098;15.446;2022-11-20T07:30:15;2.70;99.90
7163;DHT22;3623;47.098;15.446;2022-11-20T07:32:46;2.80;99.90
7163;DHT22;3623;47.098;15.446;2022-11-20T07:35:13;2.50;99.90
7163;DHT22;3623;47.098;15.446;2022-11-20T07:37:41;2.60;99.90
7163;DHT22;3623;47.098;15.446;2022-11-20T07:40:09;2.80;99.90
7163;DHT22;3623;47.098;15.446;2022-11-20T07:42:36;2.60;99.90
7163;DHT22;3623;47.098;15.446;2022-11-20T07:45:04;2.80;99.90
7163;DHT22;3623;47.098;15.446;2022-11-20T07:47:35;2.60;99.90
7163;DHT22;3623;47.098;15.446;2022-11-20T07:50:04;2.60;99.90
7163;DHT22;3623;47.098;15.446;2022-11-20T07:52:31;2.70;99.90
7163;DHT22;3623;47.098;15.446;2022-11-20T07:54:59;2.80;99.90
7163;DHT22;3623;47.098;15.446;2022-11-20T07:57:26;2.90;99.90
7163;DHT22;3623;47.098;15.446;2022-11-20T07:59:53;2.80;99.90
7163;DHT22;3623;47.098;15.446;2022-11-20T08:02:20;2.90;99.90
7163;DHT22;3623;47.098;15.446;2022-11-20T08:04:47;2.80;99.90
7163;DHT22;3623;47.098;15.446;2022-11-20T08:07:16;2.90;99.90
7163;DHT22;3623;47.098;15.446;2022-11-20T08:09:43;3.00;99.90
7163;DHT22;3623;47.098;15.446;2022-11-20T08:12:17;2.80;99.90
7163;DHT22;3623;47.098;15.446;2022-11-20T08:15:02;2.80;99.90
7163;DHT22;3623;47.098;15.446;2022-11-20T08:17:30;2.90;99.90
7163;DHT22;3623;47.098;15.446;2022-11-20T08:19:57;2.90;99.90
7163;DHT22;3623;47.098;15.446;2022-11-20T08:22:25;3.00;99.90
7163;DHT22;3623;47.098;15.446;2022-11-20T08:24:52;3.10;99.90
7163;DHT22;3623;47.098;15.446;2022-11-20T08:27:19;3.00;99.90
7163;DHT22;3623;47.098;15.446;2022-11-20T08:29:46;3.20;99.90
7163;DHT22;3623;47.098;15.446;2022-11-20T08:32:13;3.00;99.90
7163;DHT22;3623;47.098;15.446;2022-11-20T08:34:40;3.30;99.90
7163;DHT22;3623;47.098;15.446;2022-11-20T08:37:07;3.30;99.90
7163;DHT22;3623;47.098;15.446;2022-11-20T08:39:36;3.10;99.90
7163;DHT22;3623;47.098;15.446;2022-11-20T08:42:06;3.10;99.90
7163;DHT22;3623;47.098;15.446;2022-11-20T08:44:34;3.20;99.90
7163;DHT22;3623;47.098;15.446;2022-11-20T08:47:01;3.10;99.90
7163;DHT22;3623;47.098;15.446;2022-11-20T08:49:28;3.10;99.90
7163;DHT22;3623;47.098;15.446;2022-11-20T08:51:55;3.10;99.90
7163;DHT22;3623;47.098;15.446;2022-11-20T08:54:22;3.10;99.90
7163;DHT22;3623;47.098;15.446;2022-11-20T08:56:50;3.20;99.90
7163;DHT22;3623;47.098;15.446;2022-11-20T08:59:18;3.20;99.90
7163;DHT22;3623;47.098;15.446;2022-11-20T09:01:45;3.20;99.90
7163;DHT22;3623;47.098;15.446;2022-11-20T09:04:12;3.40;99.90
7163;DHT22;3623;47.098;15.446;2022-11-20T09:06:40;3.40;99.90
7163;DHT22;3623;47.098;15.446;2022-11-20T09:09:07;3.50;99.90
7163;DHT22;3623;47.098;15.446;2022-11-20T09:11:34;3.50;99.90
7163;DHT22;3623;47.098;15.446;2022-11-20T09:14:03;3.50;99.90
7163;DHT22;3623;47.098;15.446;2022-11-20T09:16:30;3.50;99.90
7163;DHT22;3623;47.098;15.446;2022-11-20T09:18:57;3.60;99.90
7163;DHT22;3623;47.098;15.446;2022-11-20T09:21:24;3.60;99.90
7163;DHT22;3623;47.098;15.446;2022-11-20T09:23:51;3.70;99.90
7163;DHT22;3623;47.098;15.446;2022-11-20T09:26:18;3.60;99.90
7163;DHT22;3623;47.098;15.446;2022-11-20T09:28:46;3.70;99.90
7163;DHT22;3623;47.098;15.446;2022-11-20T09:31:21;3.70;99.90
7163;DHT22;3623;47.098;15.446;2022-11-20T09:33:49;3.70;99.90
7163;DHT22;3623;47.098;15.446;2022-11-20T09:36:16;3.80;99.90
7163;DHT22;3623;47.098;15.446;2022-11-20T09:38:44;3.80;99.90
7163;DHT22;3623;47.098;15.446;2022-11-20T09:41:27;3.90;99.90
7163;DHT22;3623;47.098;15.446;2022-11-20T09:44:05;3.90;99.90
7163;DHT22;3623;47.098;15.446;2022-11-20T09:46:40;4.00;99.90
7163;DHT22;3623;47.098;15.446;2022-11-20T09:49:22;3.90;99.90
7163;DHT22;3623;47.098;15.446;2022-11-20T09:51:56;4.10;99.90
7163;DHT22;3623;47.098;15.446;2022-11-20T09:54:29;4.20;99.90
7163;DHT22;3623;47.098;15.446;2022-11-20T09:57:00;4.30;99.90
7163;DHT22;3623;47.098;15.446;2022-11-20T09:59:34;4.40;99.90
7163;DHT22;3623;47.098;15.446;2022-11-20T10:02:15;4.80;99.90
7163;DHT22;3623;47.098;15.446;2022-11-20T10:04:47;5.60;99.90
7163;DHT22;3623;47.098;15.446;2022-11-20T10:07:21;6.60;99.90
7163;DHT22;3623;47.098;15.446;2022-11-20T10:09:52;7.30;99.90
7163;DHT22;3623;47.098;15.446;2022-11-20T10:12:26;7.50;99.90
7163;DHT22;3623;47.098;15.446;2022-11-20T10:15:09;7.50;99.90
7163;DHT22;3623;47.098;15.446;2022-11-20T10:17:58;7.90;99.90
7163;DHT22;3623;47.098;15.446;2022-11-20T10:20:29;7.40;99.90
7163;DHT22;3623;47.098;15.446;2022-11-20T10:26:01;7.30;99.90
7163;DHT22;3623;47.098;15.446;2022-11-20T10:28:48;7.10;99.90
7163;DHT22;3623;47.098;15.446;2022-11-20T10:31:29;7.10;99.90
7163;DHT22;3623;47.098;15.446;2022-11-20T10:34:01;7.30;99.90
7163;DHT22;3623;47.098;15.446;2022-11-20T10:36:34;7.90;99.90
7163;DHT22;3623;47.098;15.446;2022-11-20T10:39:06;8.50;99.90
7163;DHT22;3623;47.098;15.446;2022-11-20T10:41:41;8.90;99.90
7163;DHT22;3623;47.098;15.446;2022-11-20T10:44:14;9.00;99.90
7163;DHT22;3623;47.098;15.446;2022-11-20T10:47:03;8.80;99.90
7163;DHT22;3623;47.098;15.446;2022-11-20T10:49:32;8.70;99.90
7163;DHT22;3623;47.098;15.446;2022-11-20T10:52:05;8.80;99.90
7163;DHT22;3623;47.098;15.446;2022-11-20T10:54:41;8.80;99.90
7163;DHT22;3623;47.098;15.446;2022-11-20T10:57:17;8.90;99.90
7163;DHT22;3623;47.098;15.446;2022-11-20T11:00:04;8.70;99.90
7163;DHT22;3623;47.098;15.446;2022-11-20T11:02:34;8.20;99.90
7163;DHT22;3623;47.098;15.446;2022-11-20T11:05:27;8.10;99.90
7163;DHT22;3623;47.098;15.446;2022-11-20T11:07:58;8.30;99.90
7163;DHT22;3623;47.098;15.446;2022-11-20T11:10:30;8.60;99.90
7163;DHT22;3623;47.098;15.446;2022-11-20T11:12:59;8.50;99.90
7163;DHT22;3623;47.098;15.446;2022-11-20T11:15:28;8.40;99.90
7163;DHT22;3623;47.098;15.446;2022-11-20T11:17:56;7.90;99.90
7163;DHT22;3623;47.098;15.446;2022-11-20T11:20:25;7.80;99.90
7163;DHT22;3623;47.098;15.446;2022-11-20T11:22:54;7.70;99.90
7163;DHT22;3623;47.098;15.446;2022-11-20T11:25:25;7.60;99.90
7163;DHT22;3623;47.098;15.446;2022-11-20T11:27:53;7.70;99.90
7163;DHT22;3623;47.098;15.446;2022-11-20T11:30:23;8.00;99.90
7163;DHT22;3623;47.098;15.446;2022-11-20T11:32:50;8.30;99.90
7163;DHT22;3623;47.098;15.446;2022-11-20T11:35:23;8.40;99.90
7163;DHT22;3623;47.098;15.446;2022-11-20T11:37:53;8.60;99.90
7163;DHT22;3623;47.098;15.446;2022-11-20T11:40:22;9.20;99.90
7163;DHT22;3623;47.098;15.446;2022-11-20T11:42:58;9.30;99.90
7163;DHT22;3623;47.098;15.446;2022-11-20T11:45:26;9.60;99.90
7163;DHT22;3623;47.098;15.446;2022-11-20T11:47:53;10.80;99.90
7163;DHT22;3623;47.098;15.446;2022-11-20T11:50:23;11.30;99.90
7163;DHT22;3623;47.098;15.446;2022-11-20T11:52:58;12.00;99.90
7163;DHT22;3623;47.098;15.446;2022-11-20T11:55:31;13.30;99.90
7163;DHT22;3623;47.098;15.446;2022-11-20T12:00:53;13.70;99.90
7163;DHT22;3623;47.098;15.446;2022-11-20T12:03:27;14.50;99.90
7163;DHT22;3623;47.098;15.446;2022-11-20T12:05:57;15.40;99.90
7163;DHT22;3623;47.098;15.446;2022-11-20T12:08:30;16.20;99.90
7163;DHT22;3623;47.098;15.446;2022-11-20T12:11:03;16.70;99.90
7163;DHT22;3623;47.098;15.446;2022-11-20T12:13:39;16.50;99.90
7163;DHT22;3623;47.098;15.446;2022-11-20T12:16:12;17.00;99.90
7163;DHT22;3623;47.098;15.446;2022-11-20T12:18:39;16.90;99.90
7163;DHT22;3623;47.098;15.446;2022-11-20T12:21:20;16.80;99.90
7163;DHT22;3623;47.098;15.446;2022-11-20T12:24:06;16.70;99.90
7163;DHT22;3623;47.098;15.446;2022-11-20T12:26:46;16.40;99.90
7163;DHT22;3623;47.098;15.446;2022-11-20T12:29:27;16.70;99.90
7163;DHT22;3623;47.098;15.446;2022-11-20T12:32:10;16.70;99.90
7163;DHT22;3623;47.098;15.446;2022-11-20T12:34:51;17.00;99.90
7163;DHT22;3623;47.098;15.446;2022-11-20T12:37:29;16.40;99.90
7163;DHT22;3623;47.098;15.446;2022-11-20T12:40:02;15.70;99.90
7163;DHT22;3623;47.098;15.446;2022-11-20T12:42:46;14.70;99.90
7163;DHT22;3623;47.098;15.446;2022-11-20T12:46:01;14.30;99.90
7163;DHT22;3623;47.098;15.446;2022-11-20T12:49:02;13.10;99.90
7163;DHT22;3623;47.098;15.446;2022-11-20T12:51:52;12.00;99.90
7163;DHT22;3623;47.098;15.446;2022-11-20T12:54:50;10.80;99.90
7163;DHT22;3623;47.098;15.446;2022-11-20T12:57:24;10.50;99.90
7163;DHT22;3623;47.098;15.446;2022-11-20T13:00:07;10.00;99.90
7163;DHT22;3623;47.098;15.446;2022-11-20T13:02:47;10.10;99.90
7163;DHT22;3623;47.098;15.446;2022-11-20T13:05:27;10.00;99.90
7163;DHT22;3623;47.098;15.446;2022-11-20T13:07:58;10.30;99.90
7163;DHT22;3623;47.098;15.446;2022-11-20T13:10:33;10.40;99.90
7163;DHT22;3623;47.098;15.446;2022-11-20T13:13:10;10.40;99.90
7163;DHT22;3623;47.098;15.446;2022-11-20T13:15:50;10.60;99.90
7163;DHT22;3623;47.098;15.446;2022-11-20T13:18:20;10.70;99.90
7163;DHT22;3623;47.098;15.446;2022-11-20T13:20:47;10.50;99.90
7163;DHT22;3623;47.098;15.446;2022-11-20T13:23:24;10.40;99.90
7163;DHT22;3623;47.098;15.446;2022-11-20T13:26:03;10.40;99.90
7163;DHT22;3623;47.098;15.446;2022-11-20T13:28:32;10.10;99.90
7163;DHT22;3623;47.098;15.446;2022-11-20T13:31:00;9.90;99.90
7163;DHT22;3623;47.098;15.446;2022-11-20T13:33:30;9.60;99.90
7163;DHT22;3623;47.098;15.446;2022-11-20T13:35:59;9.50;99.90
7163;DHT22;3623;47.098;15.446;2022-11-20T13:38:27;9.50;99.90
7163;DHT22;3623;47.098;15.446;2022-11-20T13:40:56;9.40;99.90
7163;DHT22;3623;47.098;15.446;2022-11-20T13:43:28;9.10;99.90
7163;DHT22;3623;47.098;15.446;2022-11-20T13:45:59;9.10;99.90
7163;DHT22;3623;47.098;15.446;2022-11-20T13:48:30;9.00;99.90
7163;DHT22;3623;47.098;15.446;2022-11-20T13:51:11;9.10;99.90
7163;DHT22;3623;47.098;15.446;2022-11-20T13:53:53;9.20;99.90
7163;DHT22;3623;47.098;15.446;2022-11-20T13:56:31;9.00;99.90
7163;DHT22;3623;47.098;15.446;2022-11-20T13:59:05;8.80;99.90
7163;DHT22;3623;47.098;15.446;2022-11-20T14:01:37;8.80;99.90
7163;DHT22;3623;47.098;15.446;2022-11-20T14:04:07;8.60;99.90
7163;DHT22;3623;47.098;15.446;2022-11-20T14:06:42;8.60;99.90
7163;DHT22;3623;47.098;15.446;2022-11-20T14:09:12;8.60;99.90
7163;DHT22;3623;47.098;15.446;2022-11-20T14:11:46;8.60;99.90
7163;DHT22;3623;47.098;15.446;2022-11-20T14:14:16;8.40;99.90
7163;DHT22;3623;47.098;15.446;2022-11-20T14:16:46;8.30;99.90
7163;DHT22;3623;47.098;15.446;2022-11-20T14:19:28;8.10;99.90
7163;DHT22;3623;47.098;15.446;2022-11-20T14:22:14;8.00;99.90
7163;DHT22;3623;47.098;15.446;2022-11-20T14:24:42;7.80;99.90
7163;DHT22;3623;47.098;15.446;2022-11-20T14:27:14;7.70;99.90
7163;DHT22;3623;47.098;15.446;2022-11-20T14:29:42;7.70;99.90
7163;DHT22;3623;47.098;15.446;2022-11-20T14:32:11;7.60;99.90
7163;DHT22;3623;47.098;15.446;2022-11-20T14:34:44;7.40;99.90
7163;DHT22;3623;47.098;15.446;2022-11-20T14:37:13;7.30;99.90
7163;DHT22;3623;47.098;15.446;2022-11-20T14:39:49;7.20;99.90
7163;DHT22;3623;47.098;15.446;2022-11-20T14:42:19;7.10;99.90
7163;DHT22;3623;47.098;15.446;2022-11-20T14:44:47;7.00;99.90
7163;DHT22;3623;47.098;15.446;2022-11-20T14:47:18;7.00;99.90
7163;DHT22;3623;47.098;15.446;2022-11-20T14:49:47;6.90;99.90
7163;DHT22;3623;47.098;15.446;2022-11-20T14:52:16;6.90;99.90
7163;DHT22;3623;47.098;15.446;2022-11-20T14:54:45;6.80;99.90
7163;DHT22;3623;47.098;15.446;2022-11-20T14:57:24;6.70;99.90
7163;DHT22;3623;47.098;15.446;2022-11-20T14:59:51;6.70;99.90
7163;DHT22;3623;47.098;15.446;2022-11-20T15:02:20;6.60;99.90
7163;DHT22;3623;47.098;15.446;2022-11-20T15:04:47;6.50;99.90
7163;DHT22;3623;47.098;15.446;2022-11-20T15:07:25;6.40;99.90
7163;DHT22;3623;47.098;15.446;2022-11-20T15:10:01;6.40;99.90
7163;DHT22;3623;47.098;15.446;2022-11-20T15:12:28;6.30;99.90
7163;DHT22;3623;47.098;15.446;2022-11-20T15:14:56;6.20;99.90
7163;DHT22;3623;47.098;15.446;2022-11-20T15:17:25;6.10;99.90
7163;DHT22;3623;47.098;15.446;2022-11-20T15:19:53;6.10;99.90
7163;DHT22;3623;47.098;15.446;2022-11-20T15:22:20;6.00;99.90
7163;DHT22;3623;47.098;15.446;2022-11-20T15:24:47;5.90;99.90
7163;DHT22;3623;47.098;15.446;2022-11-20T15:27:14;5.80;99.90
7163;DHT22;3623;47.098;15.446;2022-11-20T15:29:42;5.70;99.90
7163;DHT22;3623;47.098;15.446;2022-11-20T15:32:09;5.60;99.90
7163;DHT22;3623;47.098;15.446;2022-11-20T15:34:38;5.60;99.90
7163;DHT22;3623;47.098;15.446;2022-11-20T15:37:05;5.60;99.90
7163;DHT22;3623;47.098;15.446;2022-11-20T15:39:32;5.50;99.90
7163;DHT22;3623;47.098;15.446;2022-11-20T15:41:59;5.50;99.90
7163;DHT22;3623;47.098;15.446;2022-11-20T15:44:26;5.50;99.90
7163;DHT22;3623;47.098;15.446;2022-11-20T15:46:53;5.40;99.90
7163;DHT22;3623;47.098;15.446;2022-11-20T15:49:20;5.30;99.90
7163;DHT22;3623;47.098;15.446;2022-11-20T15:51:50;5.30;99.90
7163;DHT22;3623;47.098;15.446;2022-11-20T15:54:21;5.20;99.90
7163;DHT22;3623;47.098;15.446;2022-11-20T15:56:49;5.10;99.90
7163;DHT22;3623;47.098;15.446;2022-11-20T15:59:18;5.10;99.90
7163;DHT22;3623;47.098;15.446;2022-11-20T16:01:45;4.90;99.90
7163;DHT22;3623;47.098;15.446;2022-11-20T16:04:13;4.80;99.90
7163;DHT22;3623;47.098;15.446;2022-11-20T16:06:41;4.80;99.90
7163;DHT22;3623;47.098;15.446;2022-11-20T16:09:10;4.80;99.90
7163;DHT22;3623;47.098;15.446;2022-11-20T16:11:37;4.70;99.90
7163;DHT22;3623;47.098;15.446;2022-11-20T16:14:04;4.50;99.90
7163;DHT22;3623;47.098;15.446;2022-11-20T16:16:49;4.40;99.90
7163;DHT22;3623;47.098;15.446;2022-11-20T16:19:16;4.40;99.90
7163;DHT22;3623;47.098;15.446;2022-11-20T16:21:44;4.40;99.90
7163;DHT22;3623;47.098;15.446;2022-11-20T16:24:13;4.40;99.90
7163;DHT22;3623;47.098;15.446;2022-11-20T16:26:41;4.50;99.90